Time;durP1;ratioP1;P1;durP2;ratioP2;P2;SDS_P1;SDS_P2;PMS_P1;PMS_P2;Temp;Humidity;BMP_temperature;BMP_pressure;BME280_temperature;BME280_humidity;BME280_pressure;Samples;Min_cycle;Max_cycle;Signal;HPM_P1;HPM_P2
2022/03/15 00:02:26;;;;;;;7.43;1.70;;;;;;;;;;4936760;29;20065;-62
2022/03/15 00:05:01;;;;;;;4.10;1.70;;;;;;;;;;4928788;29;20063;-63
2022/03/15 00:07:32;;;;;;;8.35;1.92;;;;;;;;;;4935485;29;20067;-63
2022/03/15 00:10:04;;;;;;;2.72;1.48;;;;;;;;;;4939494;28;20055;-62
2022/03/15 00:12:36;;;;;;;4.90;1.42;;;;;;;;;;4958463;28;20055;-63
2022/03/15 00:15:10;;;;;;;7.88;1.50;;;;;;;;;;4986441;28;20058;-63
2022/03/15 00:17:43;;;;;;;8.38;1.60;;;;;;;;;;4992780;28;20058;-63
2022/03/15 00:20:21;;;;;;;9.23;1.42;;;;;;;;;;4976451;28;20066;-63
2022/03/15 00:22:57;;;;;;;6.70;1.65;;;;;;;;;;4992383;28;20069;-63
2022/03/15 00:25:30;;;;;;;2.85;1.30;;;;;;;;;;4989314;28;20054;-63
2022/03/15 00:28:02;;;;;;;6.75;1.23;;;;;;;;;;4976119;28;20061;-62
2022/03/15 00:30:34;;;;;;;2.70;1.27;;;;;;;;;;4976068;28;20406;-63
2022/03/15 00:33:05;;;;;;;;;;;;;;;;;;4992988;28;20084;-63
2022/03/15 00:35:35;;;;;;;8.43;1.42;;;;;;;;;;5021464;28;19921;-62
2022/03/15 00:38:12;;;;;;;6.53;1.45;;;;;;;;;;5031579;28;20058;-62
2022/03/15 00:40:43;;;;;;;6.28;1.60;;;;;;;;;;4982380;28;20045;-62
2022/03/15 00:43:16;;;;;;;4.15;1.48;;;;;;;;;;5015606;28;20054;-63
2022/03/15 00:45:46;;;;;;;7.22;1.65;;;;;;;;;;5031191;28;20155;-63
2022/03/15 00:48:19;;;;;;;12.38;1.92;;;;;;;;;;4991588;28;20073;-63
2022/03/15 00:50:51;;;;;;;7.40;1.58;;;;;;;;;;4957770;28;20062;-62
2022/03/15 00:53:23;;;;;;;6.13;2.00;;;;;;;;;;4995411;28;20054;-63
2022/03/15 00:55:56;;;;;;;4.60;1.63;;;;;;;;;;4977412;28;20050;-63
2022/03/15 00:58:27;;;;;;;6.95;2.05;;;;;;;;;;4991878;28;20106;-63
2022/03/15 01:01:00;;;;;;;7.40;1.60;;;;;;;;;;4989091;28;20080;-63
2022/03/15 01:03:33;;;;;;;9.50;2.03;;;;;;;;;;4991753;28;20057;-63
2022/03/15 01:06:03;;;;;;;2.70;1.70;;;;;;;;;;4991976;28;20065;-64
2022/03/15 01:08:36;;;;;;;5.10;1.75;;;;;;;;;;4992131;28;20085;-64
2022/03/15 01:11:09;;;;;;;7.75;2.00;;;;;;;;;;4929860;28;20760;-63
2022/03/15 01:13:41;;;;;;;8.93;1.90;;;;;;;;;;4952686;29;20542;-63
2022/03/15 01:16:12;;;;;;;5.40;1.88;;;;;;;;;;4953157;29;20475;-63
2022/03/15 01:18:44;;;;;;;4.20;1.55;;;;;;;;;;4905192;29;20066;-64
2022/03/15 01:21:19;;;;;;;9.25;2.03;;;;;;;;;;4936374;29;20055;-63
2022/03/15 01:23:54;;;;;;;7.72;2.15;;;;;;;;;;4952830;29;20051;-63
2022/03/15 01:26:24;;;;;;;6.80;1.95;;;;;;;;;;4993590;28;20050;-63
2022/03/15 01:28:56;;;;;;;4.70;1.90;;;;;;;;;;5011036;28;20057;-63
2022/03/15 01:31:28;;;;;;;4.05;1.88;;;;;;;;;;5011026;28;20061;-62
2022/03/15 01:34:00;;;;;;;7.72;1.98;;;;;;;;;;5038870;28;20163;-62
2022/03/15 01:36:34;;;;;;;5.57;1.90;;;;;;;;;;5033734;28;20064;-63
2022/03/15 01:39:06;;;;;;;6.95;2.00;;;;;;;;;;5010421;28;20584;-63
2022/03/15 01:41:39;;;;;;;4.55;1.98;;;;;;;;;;4994255;28;20054;-63
2022/03/15 01:44:16;;;;;;;10.20;2.30;;;;;;;;;;5010552;28;20065;-63
2022/03/15 01:46:49;;;;;;;6.63;2.20;;;;;;;;;;5010549;28;20045;-63
2022/03/15 01:49:20;;;;;;;;;;;;;;;;;;4991113;28;20046;-63
2022/03/15 01:51:51;;;;;;;7.65;2.20;;;;;;;;;;4976137;28;19922;-63
2022/03/15 01:54:24;;;;;;;5.88;1.85;;;;;;;;;;4971334;28;20058;-63
2022/03/15 01:56:54;;;;;;;6.30;2.17;;;;;;;;;;4964750;28;20051;-63
2022/03/15 01:59:26;;;;;;;9.50;2.30;;;;;;;;;;4954682;28;20046;-63
2022/03/15 02:01:58;;;;;;;7.93;2.28;;;;;;;;;;4971131;28;20062;-63
2022/03/15 02:04:32;;;;;;;3.65;1.88;;;;;;;;;;4970795;28;20054;-63
2022/03/15 02:07:09;;;;;;;5.38;2.42;;;;;;;;;;4971075;28;20061;-65
2022/03/15 02:09:42;;;;;;;7.93;1.95;;;;;;;;;;4955540;28;20062;-65
2022/03/15 02:12:17;;;;;;;8.48;2.60;;;;;;;;;;4970748;28;20062;-65
2022/03/15 02:14:49;;;;;;;6.35;2.53;;;;;;;;;;4971029;28;20438;-65
2022/03/15 02:17:19;;;;;;;10.48;2.30;;;;;;;;;;4952988;28;20062;-63
2022/03/15 02:19:59;;;;;;;4.43;2.17;;;;;;;;;;4991698;28;20058;-63
2022/03/15 02:22:33;;;;;;;7.60;2.42;;;;;;;;;;4984421;28;20074;-63
2022/03/15 02:25:06;;;;;;;6.85;2.55;;;;;;;;;;4986980;28;20217;-63
2022/03/15 02:27:36;;;;;;;7.22;2.50;;;;;;;;;;4932256;29;20047;-63
2022/03/15 02:30:07;;;;;;;7.93;2.33;;;;;;;;;;4900675;29;20547;-62
2022/03/15 02:32:39;;;;;;;9.57;1.98;;;;;;;;;;4932066;29;20496;-63
2022/03/15 02:35:11;;;;;;;8.15;2.30;;;;;;;;;;4946764;28;20054;-63
2022/03/15 02:37:42;;;;;;;7.10;2.78;;;;;;;;;;4902498;29;20060;-63
2022/03/15 02:40:13;;;;;;;10.10;2.55;;;;;;;;;;4957641;28;20499;-63
2022/03/15 02:42:45;;;;;;;7.05;2.38;;;;;;;;;;4970295;28;20054;-63
2022/03/15 02:45:17;;;;;;;6.40;2.30;;;;;;;;;;4970512;28;20055;-63
2022/03/15 02:47:48;;;;;;;8.50;2.70;;;;;;;;;;4938399;28;20760;-63
2022/03/15 02:50:21;;;;;;;5.78;2.17;;;;;;;;;;4970516;28;20059;-63
2022/03/15 02:52:53;;;;;;;5.65;2.50;;;;;;;;;;4970452;28;20062;-62
2022/03/15 02:55:25;;;;;;;8.52;2.47;;;;;;;;;;4923828;28;20054;-63
2022/03/15 02:58:00;;;;;;;7.75;2.60;;;;;;;;;;4989513;28;20058;-63
2022/03/15 03:00:34;;;;;;;9.48;3.42;;;;;;;;;;4989178;28;20062;-63
2022/03/15 03:03:05;;;;;;;7.15;3.00;;;;;;;;;;4989220;28;20058;-63
2022/03/15 03:05:36;;;;;;;15.05;3.20;;;;;;;;;;4986453;28;20577;-63
2022/03/15 03:08:07;;;;;;;7.00;2.65;;;;;;;;;;5009004;28;20084;-63
2022/03/15 03:10:40;;;;;;;8.90;2.60;;;;;;;;;;5009244;28;20061;-63
2022/03/15 03:13:13;;;;;;;11.18;3.25;;;;;;;;;;5008671;28;20161;-63
2022/03/15 03:15:43;;;;;;;6.60;2.83;;;;;;;;;;5022197;28;20053;-63
2022/03/15 03:18:15;;;;;;;9.82;2.70;;;;;;;;;;5028617;28;20060;-63
2022/03/15 03:20:50;;;;;;;10.93;2.92;;;;;;;;;;5012100;28;20060;-63
2022/03/15 03:23:24;;;;;;;7.30;2.40;;;;;;;;;;4996184;28;20054;-63
2022/03/15 03:25:56;;;;;;;7.75;2.50;;;;;;;;;;5028569;28;20118;-63
2022/03/15 03:28:36;;;;;;;9.88;2.95;;;;;;;;;;5011899;28;20053;-63
2022/03/15 03:31:09;;;;;;;8.57;2.95;;;;;;;;;;5028415;28;20124;-63
2022/03/15 03:33:44;;;;;;;7.97;3.30;;;;;;;;;;5028434;28;20535;-63
2022/03/15 03:36:16;;;;;;;6.28;2.97;;;;;;;;;;5028575;28;20093;-63
2022/03/15 03:38:48;;;;;;;6.93;2.05;;;;;;;;;;5028119;28;20057;-63
2022/03/15 03:41:22;;;;;;;5.05;2.33;;;;;;;;;;4976281;28;20053;-63
2022/03/15 03:43:53;;;;;;;8.90;2.72;;;;;;;;;;4959660;28;20514;-63
2022/03/15 03:46:27;;;;;;;10.10;2.63;;;;;;;;;;4976534;28;20525;-63
2022/03/15 03:48:58;;;;;;;10.77;2.53;;;;;;;;;;5008148;28;20050;-63
2022/03/15 03:51:30;;;;;;;7.05;2.10;;;;;;;;;;5008726;28;20053;-63
2022/03/15 03:54:02;;;;;;;9.05;2.53;;;;;;;;;;5008105;28;20405;-63
2022/03/15 03:56:34;;;;;;;7.93;2.40;;;;;;;;;;5024336;28;20064;-63
2022/03/15 03:59:04;;;;;;;6.10;2.15;;;;;;;;;;5008172;28;20053;-63
2022/03/15 04:01:35;;;;;;;6.55;2.08;;;;;;;;;;5008678;28;20065;-63
2022/03/15 04:04:06;;;;;;;7.10;2.30;;;;;;;;;;5008315;28;20421;-63
2022/03/15 04:06:38;;;;;;;7.82;2.90;;;;;;;;;;4992575;28;20053;-63
2022/03/15 04:09:10;;;;;;;8.05;2.92;;;;;;;;;;5008379;28;20061;-63
2022/03/15 04:11:44;;;;;;;5.25;2.25;;;;;;;;;;5008333;28;20628;-63
2022/03/15 04:14:16;;;;;;;7.40;2.30;;;;;;;;;;5008328;28;20064;-63
2022/03/15 04:16:47;;;;;;;8.55;2.38;;;;;;;;;;5008498;28;20651;-63
2022/03/15 04:19:17;;;;;;;15.68;2.53;;;;;;;;;;5008185;28;20054;-63
2022/03/15 04:21:47;;;;;;;9.63;2.35;;;;;;;;;;4975874;28;20061;-63
2022/03/15 04:24:19;;;;;;;11.50;2.60;;;;;;;;;;5008197;28;20073;-63
2022/03/15 04:26:54;;;;;;;6.40;2.40;;;;;;;;;;4988597;28;20080;-63
2022/03/15 04:29:26;;;;;;;5.97;2.42;;;;;;;;;;4946273;29;20067;-63
2022/03/15 04:31:59;;;;;;;6.90;2.47;;;;;;;;;;4900699;29;20051;-64
2022/03/15 04:34:32;;;;;;;8.68;2.58;;;;;;;;;;4914433;29;20416;-63
2022/03/15 04:37:05;;;;;;;8.23;3.70;;;;;;;;;;4915477;29;20773;-63
2022/03/15 04:39:37;;;;;;;10.00;2.55;;;;;;;;;;4914443;29;20079;-63
2022/03/15 04:42:08;;;;;;;14.70;3.30;;;;;;;;;;4930649;29;20075;-63
2022/03/15 04:44:39;;;;;;;7.43;3.03;;;;;;;;;;4930574;29;20055;-63
2022/03/15 04:47:11;;;;;;;6.93;3.35;;;;;;;;;;4930782;29;20067;-63
2022/03/15 04:49:44;;;;;;;8.27;2.65;;;;;;;;;;4946210;28;20063;-63
2022/03/15 04:52:17;;;;;;;9.98;2.97;;;;;;;;;;4930775;29;20063;-63
2022/03/15 04:54:48;;;;;;;;;;;;;;;;;;4930848;29;20436;-63
2022/03/15 04:57:20;;;;;;;6.78;3.22;;;;;;;;;;4933025;29;20383;-63
2022/03/15 04:59:55;;;;;;;7.90;2.70;;;;;;;;;;4918566;29;20500;-63
2022/03/15 05:02:26;;;;;;;6.95;2.88;;;;;;;;;;4933877;29;20056;-63
2022/03/15 05:04:58;;;;;;;7.68;2.75;;;;;;;;;;4921313;29;20072;-63
2022/03/15 05:07:29;;;;;;;9.15;3.20;;;;;;;;;;4993475;28;20104;-63
2022/03/15 05:12:52;;;;;;;11.85;3.00;;;;;;;;;;5073384;28;20523;-63
2022/03/15 05:15:26;;;;;;;9.25;3.13;;;;;;;;;;5050719;28;20056;-63
2022/03/15 05:17:57;;;;;;;9.70;3.33;;;;;;;;;;4999153;28;20057;-63
2022/03/15 05:20:29;;;;;;;10.15;2.83;;;;;;;;;;4971909;28;20053;-63
2022/03/15 05:23:01;;;;;;;9.38;2.78;;;;;;;;;;4956478;28;20054;-63
2022/03/15 05:25:36;;;;;;;4.85;2.50;;;;;;;;;;4925039;28;20514;-63
2022/03/15 05:28:09;;;;;;;5.03;2.60;;;;;;;;;;4972043;28;20491;-63
2022/03/15 05:30:41;;;;;;;8.77;3.10;;;;;;;;;;4972138;28;20058;-63
2022/03/15 05:33:12;;;;;;;7.55;2.55;;;;;;;;;;4971949;28;20062;-63
2022/03/15 05:35:46;;;;;;;11.32;2.60;;;;;;;;;;4971600;28;20094;-63
2022/03/15 05:38:19;;;;;;;14.18;3.03;;;;;;;;;;4971792;28;20066;-63
2022/03/15 05:40:49;;;;;;;11.27;2.90;;;;;;;;;;4876082;29;20061;-63
2022/03/15 05:43:22;;;;;;;9.48;2.67;;;;;;;;;;4876867;29;20073;-63
2022/03/15 05:45:54;;;;;;;6.13;2.72;;;;;;;;;;4876529;29;20525;-63
2022/03/15 05:48:25;;;;;;;5.45;2.40;;;;;;;;;;4809958;29;20557;-63
2022/03/15 05:50:56;;;;;;;7.30;3.00;;;;;;;;;;4824185;29;20065;-63
2022/03/15 05:53:26;;;;;;;8.13;2.90;;;;;;;;;;4851658;29;20058;-63
2022/03/15 05:55:59;;;;;;;14.77;3.00;;;;;;;;;;4835918;29;20534;-63
2022/03/15 05:58:30;;;;;;;11.65;3.03;;;;;;;;;;4894635;29;20122;-63
2022/03/15 06:01:05;;;;;;;5.50;2.67;;;;;;;;;;4914021;29;20063;-63
2022/03/15 06:03:35;;;;;;;9.65;2.63;;;;;;;;;;4932688;29;20059;-63
2022/03/15 06:06:08;;;;;;;19.60;2.95;;;;;;;;;;4932574;29;20066;-63
2022/03/15 06:08:42;;;;;;;5.68;2.03;;;;;;;;;;4932279;29;20071;-63
2022/03/15 06:11:13;;;;;;;13.38;2.83;;;;;;;;;;4893652;28;20054;-64
2022/03/15 06:13:43;;;;;;;7.93;2.35;;;;;;;;;;4954618;28;20055;-63
2022/03/15 06:16:18;;;;;;;5.75;2.50;;;;;;;;;;4971086;28;20051;-63
2022/03/15 06:18:50;;;;;;;8.77;2.95;;;;;;;;;;4983498;28;20062;-63
2022/03/15 06:21:23;;;;;;;7.15;3.25;;;;;;;;;;4990307;28;20062;-63
2022/03/15 06:23:53;;;;;;;10.60;3.40;;;;;;;;;;4990303;28;20045;-63
2022/03/15 06:26:38;;;;;;;10.88;3.25;;;;;;;;;;5033384;28;20064;-63
2022/03/15 06:29:10;;;;;;;12.85;3.42;;;;;;;;;;5000729;28;20096;-63
2022/03/15 06:31:42;;;;;;;6.25;3.05;;;;;;;;;;5049564;28;20127;-63
2022/03/15 06:34:13;;;;;;;9.30;3.13;;;;;;;;;;5049504;28;20052;-63
2022/03/15 06:36:44;;;;;;;12.35;3.53;;;;;;;;;;4973511;28;20384;-64
2022/03/15 06:39:15;;;;;;;5.75;3.00;;;;;;;;;;4990228;28;20058;-63
2022/03/15 06:41:45;;;;;;;10.48;2.70;;;;;;;;;;5004077;28;20046;-63
2022/03/15 06:44:15;;;;;;;5.93;2.13;;;;;;;;;;4993149;28;20054;-63
2022/03/15 06:46:46;;;;;;;11.10;2.67;;;;;;;;;;5009998;28;20058;-63
2022/03/15 06:49:18;;;;;;;9.27;2.65;;;;;;;;;;5009490;28;20061;-63
2022/03/15 06:51:52;;;;;;;9.15;3.00;;;;;;;;;;5009450;28;20053;-63
2022/03/15 06:54:23;;;;;;;7.00;2.85;;;;;;;;;;5028645;28;20053;-63
2022/03/15 06:56:56;;;;;;;6.82;2.50;;;;;;;;;;5028951;28;20053;-63
2022/03/15 06:59:26;;;;;;;5.45;2.58;;;;;;;;;;5029139;28;20049;-63
2022/03/15 07:02:03;;;;;;;5.82;2.70;;;;;;;;;;4989504;28;20054;-63
2022/03/15 07:04:37;;;;;;;7.30;2.65;;;;;;;;;;4957936;28;20069;-63
2022/03/15 07:07:07;;;;;;;6.63;2.70;;;;;;;;;;4989462;28;20050;-63
2022/03/15 07:09:39;;;;;;;7.03;2.00;;;;;;;;;;4989578;28;20066;-63
2022/03/15 07:12:14;;;;;;;4.03;2.00;;;;;;;;;;4973257;28;20490;-63
2022/03/15 07:14:49;;;;;;;8.48;2.00;;;;;;;;;;4987197;28;20065;-63
2022/03/15 07:17:20;;;;;;;6.15;1.88;;;;;;;;;;5008837;28;20438;-63
2022/03/15 07:19:53;;;;;;;6.20;2.00;;;;;;;;;;4969010;28;20062;-64
2022/03/15 07:22:25;;;;;;;4.93;2.58;;;;;;;;;;4954315;28;20157;-63
2022/03/15 07:24:59;;;;;;;6.32;2.72;;;;;;;;;;4960111;28;20066;-63
2022/03/15 07:27:30;;;;;;;8.25;2.58;;;;;;;;;;4992506;28;20057;-63
2022/03/15 07:30:01;;;;;;;6.05;2.55;;;;;;;;;;5008877;28;20066;-63
2022/03/15 07:32:35;;;;;;;6.93;2.13;;;;;;;;;;5008779;28;20062;-63
2022/03/15 07:35:07;;;;;;;6.63;2.38;;;;;;;;;;4992175;28;20510;-63
2022/03/15 07:37:37;;;;;;;8.15;2.20;;;;;;;;;;4976475;28;20057;-63
2022/03/15 07:40:11;;;;;;;5.82;2.40;;;;;;;;;;4960574;28;20049;-64
2022/03/15 07:42:42;;;;;;;7.53;2.22;;;;;;;;;;5008689;28;20061;-64
2022/03/15 07:45:14;;;;;;;9.48;2.38;;;;;;;;;;5008555;28;20146;-63
2022/03/15 07:47:47;;;;;;;7.35;2.10;;;;;;;;;;5008577;28;20502;-63
2022/03/15 07:50:19;;;;;;;8.40;2.58;;;;;;;;;;5007546;28;20528;-63
2022/03/15 07:52:53;;;;;;;6.15;2.28;;;;;;;;;;4969298;28;20069;-63
2022/03/15 07:55:26;;;;;;;8.93;2.30;;;;;;;;;;4969421;28;20062;-63
2022/03/15 07:57:56;;;;;;;6.57;2.53;;;;;;;;;;4997334;28;20072;-64
2022/03/15 08:00:26;;;;;;;6.72;2.42;;;;;;;;;;5008727;28;20526;-63
2022/03/15 08:02:58;;;;;;;6.10;2.53;;;;;;;;;;5008645;28;20042;-63
2022/03/15 08:05:30;;;;;;;7.93;2.63;;;;;;;;;;5021105;28;20057;-63
2022/03/15 08:08:00;;;;;;;12.20;2.60;;;;;;;;;;5028176;28;20054;-63
2022/03/15 08:10:32;;;;;;;6.10;2.40;;;;;;;;;;4937876;28;20530;-63
2022/03/15 08:13:04;;;;;;;9.35;2.72;;;;;;;;;;4969422;28;20051;-63
2022/03/15 08:15:37;;;;;;;15.63;2.80;;;;;;;;;;4930648;29;20067;-64
2022/03/15 08:18:07;;;;;;;7.00;2.50;;;;;;;;;;4930847;29;20440;-63
2022/03/15 08:20:41;;;;;;;5.78;2.50;;;;;;;;;;4931050;29;20060;-63
2022/03/15 08:23:17;;;;;;;4.82;2.40;;;;;;;;;;4931046;29;20064;-64
2022/03/15 08:25:48;;;;;;;11.20;2.63;;;;;;;;;;4930898;29;20059;-63
2022/03/15 08:28:18;;;;;;;7.22;2.30;;;;;;;;;;4930410;29;20052;-63
2022/03/15 08:30:50;;;;;;;3.90;2.05;;;;;;;;;;4925823;28;20054;-63
2022/03/15 08:33:27;;;;;;;8.75;2.20;;;;;;;;;;4940808;28;20054;-63
2022/03/15 08:36:06;;;;;;;5.22;2.47;;;;;;;;;;4958161;28;20065;-63
2022/03/15 08:38:37;;;;;;;5.88;2.30;;;;;;;;;;4972781;28;20059;-63
2022/03/15 08:41:07;;;;;;;9.95;2.60;;;;;;;;;;4972702;28;20089;-63
2022/03/15 08:43:37;;;;;;;7.47;2.88;;;;;;;;;;4956900;28;20062;-63
2022/03/15 08:46:11;;;;;;;9.00;2.53;;;;;;;;;;4972627;28;20518;-63
2022/03/15 08:48:43;;;;;;;7.82;2.28;;;;;;;;;;5014581;28;20053;-63
2022/03/15 08:51:15;;;;;;;3.65;2.10;;;;;;;;;;5015578;28;20073;-63
2022/03/15 08:53:45;;;;;;;4.72;2.17;;;;;;;;;;5005254;28;20391;-63
2022/03/15 08:56:18;;;;;;;4.38;1.85;;;;;;;;;;4991562;28;20039;-63
2022/03/15 08:58:49;;;;;;;7.53;2.17;;;;;;;;;;4996195;28;20418;-63
2022/03/15 09:01:21;;;;;;;9.30;2.05;;;;;;;;;;4972344;28;20054;-63
2022/03/15 09:04:02;;;;;;;6.65;2.15;;;;;;;;;;4924892;28;20054;-63
2022/03/15 09:06:35;;;;;;;5.07;2.30;;;;;;;;;;4933683;29;20048;-63
2022/03/15 09:09:06;;;;;;;10.00;2.63;;;;;;;;;;4933894;29;20171;-64
2022/03/15 09:11:38;;;;;;;7.43;2.70;;;;;;;;;;4933652;28;20082;-63
2022/03/15 09:14:07;;;;;;;5.93;2.10;;;;;;;;;;4933595;29;20460;-64
2022/03/15 09:16:40;;;;;;;10.90;2.20;;;;;;;;;;4933866;29;20074;-63
2022/03/15 09:19:13;;;;;;;4.18;2.47;;;;;;;;;;4917433;29;20047;-63
2022/03/15 09:21:45;;;;;;;5.53;2.90;;;;;;;;;;4933587;28;20437;-63
2022/03/15 09:24:19;;;;;;;5.22;2.42;;;;;;;;;;4933566;29;20058;-63
2022/03/15 09:26:52;;;;;;;4.75;2.30;;;;;;;;;;4933405;29;20063;-63
2022/03/15 09:29:25;;;;;;;4.50;2.40;;;;;;;;;;4914366;29;20053;-63
2022/03/15 09:31:57;;;;;;;10.98;2.70;;;;;;;;;;4956662;28;20064;-64
2022/03/15 09:34:27;;;;;;;5.53;2.63;;;;;;;;;;5011137;28;20087;-63
2022/03/15 09:36:59;;;;;;;6.63;2.42;;;;;;;;;;5010775;28;20054;-64
2022/03/15 09:39:30;;;;;;;8.25;2.70;;;;;;;;;;4952042;29;20051;-64
2022/03/15 09:42:08;;;;;;;6.20;2.60;;;;;;;;;;4966660;28;20047;-64
2022/03/15 09:44:40;;;;;;;11.88;3.45;;;;;;;;;;4901238;29;20040;-64
2022/03/15 09:47:15;;;;;;;7.30;2.75;;;;;;;;;;4879426;29;20052;-64
2022/03/15 09:49:46;;;;;;;5.65;2.65;;;;;;;;;;4895235;29;20084;-64
2022/03/15 09:52:21;;;;;;;7.63;2.70;;;;;;;;;;4895356;29;20065;-64
2022/03/15 09:54:52;;;;;;;6.47;2.65;;;;;;;;;;4860917;29;20060;-63
2022/03/15 09:57:30;;;;;;;10.63;2.85;;;;;;;;;;4830938;29;20065;-63
2022/03/15 10:00:04;;;;;;;;;;;;;;;;;;4858205;29;20061;-64
2022/03/15 10:02:41;;;;;;;5.22;2.70;;;;;;;;;;4857703;29;20356;-64
2022/03/15 10:05:13;;;;;;;8.63;3.15;;;;;;;;;;4827358;29;20061;-64
2022/03/15 10:07:45;;;;;;;4.93;2.80;;;;;;;;;;4901415;29;20158;-64
2022/03/15 10:10:16;;;;;;;8.88;3.05;;;;;;;;;;4894475;29;20053;-63
2022/03/15 10:12:47;;;;;;;6.85;3.05;;;;;;;;;;4863560;29;20052;-63
2022/03/15 10:15:21;;;;;;;9.27;3.22;;;;;;;;;;4894669;29;20057;-63
2022/03/15 10:18:04;;;;;;;6.65;3.30;;;;;;;;;;4894614;29;20067;-63
2022/03/15 10:20:41;;;;;;;9.25;3.22;;;;;;;;;;4879546;29;20060;-63
2022/03/15 10:23:11;;;;;;;11.93;3.10;;;;;;;;;;4882216;29;20169;-63
2022/03/15 10:25:45;;;;;;;10.48;2.90;;;;;;;;;;4962044;28;20055;-63
2022/03/15 10:28:20;;;;;;;5.85;2.97;;;;;;;;;;4954585;28;20055;-63
2022/03/15 10:30:55;;;;;;;8.55;3.15;;;;;;;;;;4970791;28;20102;-63
2022/03/15 10:33:27;;;;;;;8.15;3.65;;;;;;;;;;4989768;28;20050;-63
2022/03/15 10:35:58;;;;;;;10.68;2.90;;;;;;;;;;4989864;28;20050;-63
2022/03/15 10:38:31;;;;;;;6.30;2.63;;;;;;;;;;4989859;28;20070;-63
2022/03/15 10:41:04;;;;;;;8.32;2.80;;;;;;;;;;5009053;28;20046;-63
2022/03/15 10:43:37;;;;;;;6.85;3.05;;;;;;;;;;5009427;28;20053;-63
2022/03/15 10:46:10;;;;;;;7.95;3.05;;;;;;;;;;5009183;28;20418;-63
2022/03/15 10:48:45;;;;;;;7.20;2.97;;;;;;;;;;4993553;28;20418;-63
2022/03/15 10:51:17;;;;;;;14.07;3.25;;;;;;;;;;5005732;28;20054;-63
2022/03/15 10:53:49;;;;;;;5.15;2.70;;;;;;;;;;4986241;28;20054;-63
2022/03/15 10:56:25;;;;;;;10.82;3.17;;;;;;;;;;4989481;28;20574;-63
2022/03/15 10:59:04;;;;;;;8.50;3.20;;;;;;;;;;4950697;29;20056;-63
2022/03/15 11:01:41;;;;;;;7.70;2.80;;;;;;;;;;4950960;29;20055;-63
2022/03/15 11:04:13;;;;;;;9.85;2.92;;;;;;;;;;4950731;29;20439;-65
2022/03/15 11:06:45;;;;;;;11.85;3.63;;;;;;;;;;4950745;29;20083;-65
2022/03/15 11:09:43;;;;;;;7.40;3.20;;;;;;;;;;4934492;29;20162;-63
2022/03/15 11:12:13;;;;;;;8.45;3.03;;;;;;;;;;4901270;29;20051;-64
2022/03/15 11:14:51;;;;;;;7.15;3.72;;;;;;;;;;4931422;29;20055;-64
2022/03/15 11:17:24;;;;;;;8.57;3.28;;;;;;;;;;4903109;29;20074;-64
2022/03/15 11:20:01;;;;;;;7.97;3.25;;;;;;;;;;4954489;28;20492;-64
2022/03/15 11:22:37;;;;;;;6.60;3.53;;;;;;;;;;4954137;28;20063;-65
2022/03/15 11:25:17;;;;;;;7.38;3.45;;;;;;;;;;4969926;28;20066;-65
2022/03/15 11:27:51;;;;;;;9.43;3.47;;;;;;;;;;4969496;28;20051;-65
2022/03/15 11:30:28;;;;;;;6.53;3.22;;;;;;;;;;4971179;28;20051;-65
2022/03/15 11:33:02;;;;;;;10.57;4.13;;;;;;;;;;5008623;28;20502;-65
2022/03/15 11:35:35;;;;;;;6.22;3.20;;;;;;;;;;4995082;28;20062;-65
2022/03/15 11:38:08;;;;;;;8.27;3.20;;;;;;;;;;5048272;28;20057;-65
2022/03/15 11:40:45;;;;;;;5.47;2.78;;;;;;;;;;4998731;28;20064;-65
2022/03/15 11:43:38;;;;;;;9.23;2.72;;;;;;;;;;4998911;28;20068;-65
2022/03/15 11:46:21;;;;;;;8.15;2.72;;;;;;;;;;4972632;28;20053;-65
2022/03/15 11:49:05;;;;;;;;;;;;;;;;;;4989156;28;20054;-66
2022/03/15 11:51:52;;;;;;;5.70;1.98;;;;;;;;;;5004562;28;20357;-65
2022/03/15 11:54:26;;;;;;;3.97;1.85;;;;;;;;;;4988754;28;20438;-65
2022/03/15 11:57:02;;;;;;;5.78;1.85;;;;;;;;;;4988630;28;20073;-65
2022/03/15 11:59:51;;;;;;;5.60;2.13;;;;;;;;;;4953467;28;20419;-65
2022/03/15 12:02:28;;;;;;;3.50;1.65;;;;;;;;;;4968970;28;20059;-65
2022/03/15 12:04:58;;;;;;;3.67;1.63;;;;;;;;;;4964416;28;20070;-65
2022/03/15 12:07:45;;;;;;;6.88;1.30;;;;;;;;;;4896662;29;20093;-65
2022/03/15 12:10:27;;;;;;;3.17;1.17;;;;;;;;;;4896796;29;20056;-65
2022/03/15 12:13:41;;;;;;;3.83;1.25;;;;;;;;;;4897110;29;20421;-65
2022/03/15 12:16:19;;;;;;;5.13;1.17;;;;;;;;;;4896643;29;20059;-65
2022/03/15 12:19:40;;;;;;;;;;;;;;;;;;;;;
2022/03/15 12:21:57;;;;;;;4.03;1.25;;;;;;;;;;4874527;29;20714;-65
2022/03/15 12:24:51;;;;;;;2.08;1.17;;;;;;;;;;4863118;29;20077;-65
2022/03/15 12:27:28;;;;;;;4.25;1.25;;;;;;;;;;4843610;29;20049;-65
2022/03/15 12:30:01;;;;;;;3.45;1.15;;;;;;;;;;4844500;29;20067;-62
2022/03/15 12:32:31;;;;;;;6.15;1.23;;;;;;;;;;4885672;29;20064;-65
2022/03/15 12:35:08;;;;;;;8.32;1.30;;;;;;;;;;4896855;29;20052;-65
2022/03/15 12:37:39;;;;;;;2.85;1.42;;;;;;;;;;4880940;29;20178;-66
2022/03/15 12:40:12;;;;;;;7.15;2.33;;;;;;;;;;4896567;29;20063;-65
2022/03/15 12:42:57;;;;;;;2.85;1.50;;;;;;;;;;4849487;29;20498;-66
2022/03/15 12:45:33;;;;;;;3.00;1.60;;;;;;;;;;4908656;29;20071;-66
2022/03/15 12:48:07;;;;;;;3.50;1.80;;;;;;;;;;4915434;29;20056;-66
2022/03/15 12:51:01;;;;;;;8.05;2.17;;;;;;;;;;4915294;29;20060;-65
2022/03/15 12:53:42;;;;;;;3.78;1.80;;;;;;;;;;4969181;28;20542;-66
2022/03/15 12:56:15;;;;;;;8.35;3.28;;;;;;;;;;5007719;28;20068;-66
2022/03/15 12:58:45;;;;;;;7.00;2.10;;;;;;;;;;5031454;28;20096;-66
2022/03/15 13:01:18;;;;;;;3.53;2.25;;;;;;;;;;5033871;28;20049;-65
2022/03/15 13:03:49;;;;;;;4.72;2.70;;;;;;;;;;4994931;28;20050;-66
2022/03/15 13:06:22;;;;;;;4.47;2.40;;;;;;;;;;5015215;28;20649;-65
2022/03/15 13:08:56;;;;;;;5.05;2.05;;;;;;;;;;5020962;28;20053;-65
2022/03/15 13:11:29;;;;;;;4.45;2.03;;;;;;;;;;5051140;28;20564;-63
2022/03/15 13:14:04;;;;;;;5.63;2.13;;;;;;;;;;5051299;28;20060;-65
2022/03/15 13:16:36;;;;;;;9.60;2.30;;;;;;;;;;5049943;28;20061;-64
2022/03/15 13:19:10;;;;;;;3.70;2.08;;;;;;;;;;5050633;28;20076;-63
2022/03/15 13:21:41;;;;;;;4.60;1.80;;;;;;;;;;5051067;28;20413;-63
2022/03/15 13:24:12;;;;;;;3.65;1.85;;;;;;;;;;5001319;28;20469;-63
2022/03/15 13:26:52;;;;;;;4.35;2.10;;;;;;;;;;5030806;28;20049;-63
2022/03/15 13:29:31;;;;;;;8.45;1.85;;;;;;;;;;4998169;28;20052;-64
2022/03/15 13:32:04;;;;;;;3.80;1.33;;;;;;;;;;5030659;28;20061;-64
2022/03/15 13:34:36;;;;;;;3.80;1.38;;;;;;;;;;4994445;28;20560;-63
2022/03/15 13:37:12;;;;;;;4.90;1.75;;;;;;;;;;5010386;28;20065;-63
2022/03/15 13:39:42;;;;;;;2.83;1.40;;;;;;;;;;5010764;28;20054;-64
2022/03/15 13:42:13;;;;;;;5.20;1.50;;;;;;;;;;5026825;28;20053;-63
2022/03/15 13:44:53;;;;;;;3.25;1.73;;;;;;;;;;4971318;28;20447;-64
2022/03/15 13:47:27;;;;;;;1.88;1.13;;;;;;;;;;4971530;28;20190;-63
2022/03/15 13:50:07;;;;;;;3.58;1.30;;;;;;;;;;4971566;28;20504;-64
2022/03/15 13:52:39;;;;;;;2.83;1.40;;;;;;;;;;4956009;28;20054;-64
2022/03/15 13:55:11;;;;;;;2.90;1.85;;;;;;;;;;4953832;28;20496;-63
2022/03/15 13:57:51;;;;;;;4.93;1.42;;;;;;;;;;4932624;29;20063;-63
2022/03/15 14:00:28;;;;;;;4.57;1.80;;;;;;;;;;4933263;29;20051;-64
2022/03/15 14:03:07;;;;;;;4.63;1.38;;;;;;;;;;4933169;29;20067;-64
2022/03/15 14:05:41;;;;;;;2.53;1.52;;;;;;;;;;4952509;29;20500;-64
2022/03/15 14:08:18;;;;;;;3.28;1.60;;;;;;;;;;4953537;28;20035;-64
2022/03/15 14:10:54;;;;;;;2.45;1.27;;;;;;;;;;4971273;28;20058;-64
2022/03/15 14:13:32;;;;;;;2.20;1.35;;;;;;;;;;4974303;28;20402;-63
2022/03/15 14:16:15;;;;;;;2.92;1.20;;;;;;;;;;4990521;28;20065;-63
2022/03/15 14:18:55;;;;;;;2.97;1.23;;;;;;;;;;4990637;28;20065;-64
2022/03/15 14:21:26;;;;;;;2.67;1.20;;;;;;;;;;4998601;28;20061;-64
2022/03/15 14:24:00;;;;;;;2.20;1.30;;;;;;;;;;5040108;28;20056;-64
2022/03/15 14:26:58;;;;;;;4.60;1.25;;;;;;;;;;4949999;28;20073;-64
2022/03/15 14:29:35;;;;;;;3.25;1.30;;;;;;;;;;5022554;28;20053;-64
2022/03/15 14:32:12;;;;;;;2.97;1.30;;;;;;;;;;5020264;28;20048;-64
2022/03/15 14:35:04;;;;;;;2.30;1.20;;;;;;;;;;4978300;28;20464;-64
2022/03/15 14:37:38;;;;;;;5.35;2.10;;;;;;;;;;5049598;28;20041;-65
2022/03/15 14:40:14;;;;;;;2.30;1.33;;;;;;;;;;5049236;28;20052;-64
2022/03/15 14:42:52;;;;;;;5.35;1.02;;;;;;;;;;5017571;28;20060;-64
2022/03/15 14:45:26;;;;;;;2.28;0.93;;;;;;;;;;5035314;28;20075;-64
2022/03/15 14:47:57;;;;;;;2.83;1.00;;;;;;;;;;5051127;28;20063;-64
2022/03/15 14:50:31;;;;;;;1.95;1.08;;;;;;;;;;5069210;28;20040;-63
2022/03/15 14:53:03;;;;;;;5.20;1.92;;;;;;;;;;5037159;28;20049;-64
2022/03/15 14:55:33;;;;;;;2.78;1.50;;;;;;;;;;4978365;28;20049;-63
2022/03/15 14:58:09;;;;;;;7.55;1.40;;;;;;;;;;4964620;28;20049;-63
2022/03/15 15:00:48;;;;;;;7.88;1.10;;;;;;;;;;5029164;28;20422;-64
2022/03/15 15:03:19;;;;;;;1.90;1.00;;;;;;;;;;5029542;28;20049;-63
2022/03/15 15:05:54;;;;;;;2.50;1.08;;;;;;;;;;5029029;28;20078;-63
2022/03/15 15:08:28;;;;;;;3.17;1.40;;;;;;;;;;5028897;28;20054;-63
2022/03/15 15:10:59;;;;;;;5.05;1.98;;;;;;;;;;5029110;28;20041;-64
2022/03/15 15:13:29;;;;;;;4.57;1.58;;;;;;;;;;4996037;28;20057;-63
2022/03/15 15:16:00;;;;;;;2.72;1.30;;;;;;;;;;4980203;28;20057;-62
2022/03/15 15:18:38;;;;;;;4.95;1.65;;;;;;;;;;5012403;28;20421;-63
2022/03/15 15:21:12;;;;;;;3.90;1.33;;;;;;;;;;5028982;28;20057;-63
2022/03/15 15:23:47;;;;;;;5.15;1.55;;;;;;;;;;5028896;28;20053;-63
2022/03/15 15:26:18;;;;;;;4.38;1.40;;;;;;;;;;5028955;28;20104;-63